Camden, South Carolina
Current Conditions -  °F | °C
As of 2:55 PM on Thursday 30 Oct 2014 (Local Time) from KCDN Reporting Station
Clear Clear  
Wind Chill: 68°   Ceiling: Unl
Heat Index: 68°   Visibility: 10mi
Dew Point: 41°   Wind: 9mph
Humidity: 37%   Direction: 50°NE
Pressure: 29.98"   Gusts: NA
Location:  34.25°N, 80.61°W
Report Text: KCDN 301855Z AUTO 05008KT 10SM CLR 20/05 A2998 RMK AO2 TSNO
Loading
Personal Weather Stations






























Interactive Weather Map
Tropical Storm Tracking
New forecast layout! Learn more

10-Day Weather Forecast

Advertisements
Track Severe Weather on mobile